createdAt,value
2022-12-18T02:15:14.742Z,-3.40
2022-12-18T02:17:48.407Z,-3.30
2022-12-18T07:51:41.924Z,-3.80
2022-12-18T07:54:09.850Z,-3.80
2022-12-18T07:56:37.761Z,-3.80
2022-12-18T07:59:05.659Z,-3.80
2022-12-18T08:01:36.057Z,-3.80
2022-12-18T08:04:04.185Z,-3.80
2022-12-18T08:06:32.151Z,-3.70
2022-12-18T08:09:00.168Z,-3.70
2022-12-18T08:11:29.739Z,-3.60
2022-12-18T08:13:58.401Z,-3.60
2022-12-18T08:16:26.638Z,-3.60
2022-12-18T08:18:56.484Z,-3.50
2022-12-18T08:21:26.318Z,-3.40
2022-12-18T08:23:55.580Z,-3.40
2022-12-18T08:26:24.466Z,-3.30
2022-12-18T08:28:53.518Z,-3.30
2022-12-18T08:31:22.123Z,-3.20
2022-12-18T08:33:53.199Z,-3.20
2022-12-18T08:36:24.276Z,-3.10
2022-12-18T08:38:53.084Z,-3.10
2022-12-18T08:41:21.616Z,-3.00
2022-12-18T08:44:07.476Z,-2.90
2022-12-18T08:46:38.085Z,-2.90
2022-12-18T08:49:07.242Z,-2.80
2022-12-18T08:51:37.104Z,-2.70
2022-12-18T08:54:06.338Z,-2.60
2022-12-18T08:56:35.180Z,-2.50
2022-12-18T08:59:05.297Z,-2.40
2022-12-18T09:01:34.276Z,-2.40
2022-12-18T09:04:04.557Z,-2.30
2022-12-18T09:06:36.453Z,-2.20
2022-12-18T09:09:06.609Z,-2.20
2022-12-18T09:11:35.726Z,-2.20
2022-12-18T09:14:04.664Z,-2.10
2022-12-18T09:16:36.064Z,-2.10
2022-12-18T09:19:06.685Z,-2.00
2022-12-18T09:21:44.800Z,-2.00
2022-12-18T09:24:17.469Z,-2.00
2022-12-18T09:26:47.294Z,-1.90
2022-12-18T09:29:18.968Z,-1.90
2022-12-18T09:31:48.142Z,-1.80
2022-12-18T09:34:16.742Z,-1.80
2022-12-18T09:36:46.705Z,-1.70
2022-12-18T09:39:16.068Z,-1.70
2022-12-18T09:41:48.923Z,-1.60
2022-12-18T09:44:24.761Z,-1.60
2022-12-18T09:47:00.918Z,-1.60
2022-12-18T09:49:32.405Z,-1.60
2022-12-18T09:52:06.368Z,-1.60
2022-12-18T09:54:38.727Z,-1.50
2022-12-18T09:57:07.349Z,-1.50
2022-12-18T09:59:41.080Z,-1.50
2022-12-18T10:02:22.468Z,-1.40
2022-12-18T10:05:06.471Z,-1.40
2022-12-18T10:07:46.648Z,-1.30
2022-12-18T10:10:25.485Z,-1.30
2022-12-18T10:13:04.760Z,-1.20
2022-12-18T10:15:38.865Z,-1.20
2022-12-18T10:18:22.018Z,-1.20
2022-12-18T10:20:53.838Z,-1.10
2022-12-18T10:23:30.494Z,-1.10
2022-12-18T10:26:04.414Z,-1.00
2022-12-18T10:28:35.395Z,-1.00
2022-12-18T10:31:04.005Z,-0.90
2022-12-18T10:33:34.706Z,-0.90
2022-12-18T10:36:04.628Z,-0.90
2022-12-18T10:38:34.528Z,-0.80
2022-12-18T10:41:05.634Z,-0.80
2022-12-18T10:43:35.526Z,-0.80
2022-12-18T10:46:19.541Z,-0.70
2022-12-18T10:48:55.747Z,-0.70
2022-12-18T10:51:27.110Z,-0.60
2022-12-18T10:54:03.080Z,-0.60
2022-12-18T10:56:35.392Z,-0.60
2022-12-18T10:59:06.354Z,-0.50
2022-12-18T11:01:52.852Z,-0.50
2022-12-18T11:04:24.694Z,-0.50
2022-12-18T11:06:59.089Z,-0.50
2022-12-18T11:09:30.544Z,-0.40
2022-12-18T11:12:01.004Z,-0.40
2022-12-18T11:14:31.435Z,-0.40
2022-12-18T11:19:56.654Z,-0.30
2022-12-18T11:22:28.834Z,-0.30
2022-12-18T11:25:32.545Z,-0.20
2022-12-18T11:27:54.033Z,-0.10
2022-12-18T11:30:29.217Z,-0.10
2022-12-18T11:33:09.413Z,-0.10
2022-12-18T11:35:44.846Z,0.00
2022-12-18T11:38:22.315Z,0.00
2022-12-18T11:40:58.861Z,0.10
2022-12-18T11:43:32.262Z,0.00
2022-12-18T11:46:07.036Z,0.10
2022-12-18T11:48:39.683Z,0.10
2022-12-18T11:51:15.989Z,0.20
2022-12-18T11:53:44.633Z,0.20
2022-12-18T11:56:29.822Z,0.20
2022-12-18T11:59:11.336Z,0.20
2022-12-18T12:01:51.070Z,0.20
2022-12-18T12:04:50.089Z,0.30
2022-12-18T12:07:39.072Z,0.30
2022-12-18T12:10:19.507Z,0.30
2022-12-18T12:13:03.268Z,0.30
2022-12-18T12:15:41.662Z,0.30
2022-12-18T12:18:23.296Z,0.40
2022-12-18T12:20:58.203Z,0.40
2022-12-18T12:23:39.805Z,0.40
2022-12-18T12:26:13.153Z,0.40
2022-12-18T12:29:10.591Z,0.40
2022-12-18T12:31:57.479Z,0.40
2022-12-18T12:34:29.611Z,0.40
2022-12-18T12:37:14.138Z,0.50
2022-12-18T12:39:47.017Z,0.50
2022-12-18T12:42:44.394Z,0.50
2022-12-18T12:45:20.514Z,0.50
2022-12-18T12:47:52.617Z,0.50
2022-12-18T12:50:23.308Z,0.60
2022-12-18T12:52:55.523Z,0.60
2022-12-18T12:55:27.358Z,0.60
2022-12-18T12:58:04.673Z,0.60
2022-12-18T13:00:43.331Z,0.70
2022-12-18T13:03:18.900Z,0.70
2022-12-18T13:05:53.140Z,0.70
2022-12-18T13:08:31.153Z,0.70
2022-12-18T13:11:26.801Z,0.70
2022-12-18T13:13:57.459Z,0.70
2022-12-18T13:16:29.692Z,0.70
2022-12-18T13:19:00.116Z,0.70
2022-12-18T13:21:30.804Z,0.70
2022-12-18T13:24:16.474Z,0.70
2022-12-18T13:26:45.669Z,0.70
2022-12-18T13:29:35.803Z,0.80
2022-12-18T13:32:20.961Z,0.80
2022-12-18T13:35:11.403Z,0.80
2022-12-18T13:37:45.199Z,0.80
2022-12-18T13:40:57.245Z,0.80
2022-12-18T13:43:38.048Z,0.80
2022-12-18T13:46:22.906Z,0.80
2022-12-18T13:48:58.741Z,0.80
2022-12-18T13:51:28.264Z,0.80
2022-12-18T13:54:00.586Z,0.80
2022-12-18T13:56:30.741Z,0.80
2022-12-18T13:59:24.748Z,0.80
2022-12-18T14:01:57.104Z,0.80
2022-12-18T14:04:29.744Z,0.90
2022-12-18T14:07:03.890Z,0.90
2022-12-18T14:09:34.089Z,0.90
2022-12-18T14:12:21.351Z,0.90
2022-12-18T14:14:54.939Z,0.90
2022-12-18T14:17:24.740Z,0.90
2022-12-18T14:19:54.319Z,0.90
2022-12-18T14:22:28.726Z,0.90
2022-12-18T14:25:16.064Z,0.90
2022-12-18T14:27:46.408Z,0.90
2022-12-18T14:30:33.055Z,0.90
2022-12-18T14:33:06.105Z,0.90
2022-12-18T14:35:37.669Z,0.90
2022-12-18T14:38:28.359Z,0.90
2022-12-18T14:41:01.483Z,1.00
2022-12-18T14:43:31.332Z,0.90
2022-12-18T14:46:03.824Z,0.90
2022-12-18T14:48:43.686Z,0.90
2022-12-18T14:51:21.148Z,1.00
2022-12-18T14:53:54.803Z,1.00
2022-12-18T14:56:26.824Z,1.00
2022-12-18T14:58:58.029Z,1.00
2022-12-18T15:01:29.454Z,1.00
2022-12-18T15:03:59.690Z,0.90
2022-12-18T15:06:38.487Z,0.90
2022-12-18T15:09:22.756Z,0.90
2022-12-18T15:11:51.638Z,0.90
2022-12-18T15:14:35.852Z,1.00
2022-12-18T15:17:07.263Z,1.00
2022-12-18T15:19:41.071Z,0.90
2022-12-18T15:22:28.265Z,0.90
2022-12-18T15:24:57.720Z,0.90
2022-12-18T15:27:30.381Z,0.90
2022-12-18T15:30:22.244Z,0.90
2022-12-18T15:32:51.862Z,0.90
2022-12-18T15:35:23.247Z,0.90
2022-12-18T15:37:54.537Z,0.90
2022-12-18T15:40:25.583Z,0.90
2022-12-18T15:43:13.684Z,0.90
2022-12-18T15:45:42.539Z,0.80
2022-12-18T15:48:21.700Z,0.90
2022-12-18T15:50:50.895Z,0.90
2022-12-18T15:53:21.665Z,0.90
2022-12-18T15:56:07.865Z,0.90
2022-12-18T15:58:37.182Z,0.90
2022-12-18T16:01:06.221Z,0.90
2022-12-18T16:03:34.911Z,0.90
2022-12-18T16:06:04.194Z,0.90
2022-12-18T16:08:34.836Z,0.80
2022-12-18T16:11:03.912Z,0.90
2022-12-18T16:13:32.598Z,0.90
2022-12-18T16:16:01.394Z,0.90
2022-12-18T16:18:29.895Z,0.90
2022-12-18T16:20:58.479Z,0.90
2022-12-18T16:23:28.221Z,0.90
2022-12-18T16:25:58.349Z,0.90
2022-12-18T16:28:26.804Z,0.90
2022-12-18T16:30:55.315Z,0.90
2022-12-18T16:33:23.728Z,0.90
2022-12-18T16:35:54.657Z,0.90
2022-12-18T16:38:23.034Z,0.90
2022-12-18T16:41:08.769Z,0.90
2022-12-18T16:43:38.819Z,0.90
2022-12-18T16:46:07.669Z,0.90
2022-12-18T16:48:35.993Z,1.00
2022-12-18T16:51:06.081Z,0.90
2022-12-18T16:53:35.340Z,0.90
2022-12-18T16:56:05.399Z,1.00
2022-12-18T16:58:34.985Z,0.90
2022-12-18T17:01:21.715Z,1.00
2022-12-18T17:03:54.956Z,1.00
2022-12-18T17:06:23.664Z,0.90
2022-12-18T17:08:57.610Z,0.90
2022-12-18T17:11:26.237Z,1.00
2022-12-18T17:13:56.075Z,1.00
2022-12-18T17:16:28.101Z,1.00
2022-12-18T17:18:56.565Z,1.00
2022-12-18T17:21:25.146Z,1.00
2022-12-18T17:23:53.720Z,1.00
2022-12-18T17:26:22.189Z,1.00
2022-12-18T17:28:50.923Z,1.00
2022-12-18T17:31:21.602Z,1.00
2022-12-18T17:33:52.683Z,1.00
2022-12-18T17:36:21.844Z,1.10
2022-12-18T17:38:52.759Z,1.00
2022-12-18T17:41:22.053Z,1.00
2022-12-18T17:43:53.176Z,1.00
2022-12-18T17:46:21.790Z,1.00
2022-12-18T17:48:51.805Z,1.00
2022-12-18T17:51:20.475Z,1.00
2022-12-18T17:53:49.038Z,1.00
2022-12-18T17:56:19.356Z,1.10
2022-12-18T17:58:48.042Z,1.10
2022-12-18T18:01:18.117Z,1.10
2022-12-18T18:03:47.352Z,1.10
2022-12-18T18:06:19.263Z,1.10
2022-12-18T18:08:47.586Z,1.10
2022-12-18T18:11:36.093Z,1.20
2022-12-18T18:14:07.717Z,1.20
2022-12-18T18:16:40.598Z,1.20
2022-12-18T18:19:11.535Z,1.20
2022-12-18T18:21:43.359Z,1.30
2022-12-18T18:24:14.152Z,1.30
2022-12-18T18:26:42.865Z,1.30
2022-12-18T18:29:15.253Z,1.30
2022-12-18T18:31:44.881Z,1.30
2022-12-18T18:34:17.080Z,1.30
2022-12-18T18:36:47.595Z,1.30
2022-12-18T18:39:16.364Z,1.30
2022-12-18T18:41:47.676Z,1.30
2022-12-18T18:44:17.204Z,1.30
2022-12-18T18:46:46.232Z,1.30
2022-12-18T18:49:15.045Z,1.40
2022-12-18T18:51:44.127Z,1.40
2022-12-18T18:54:13.985Z,1.40
2022-12-18T18:57:18.677Z,1.40
2022-12-18T18:59:32.256Z,1.40
2022-12-18T19:02:04.240Z,1.40
2022-12-18T19:04:33.889Z,1.50
2022-12-18T19:07:02.696Z,1.50
2022-12-18T19:09:32.714Z,1.50
2022-12-18T19:12:18.987Z,1.50
2022-12-18T19:14:47.736Z,1.50
2022-12-18T19:17:16.664Z,1.60
2022-12-18T19:19:45.381Z,1.60
2022-12-18T19:22:14.255Z,1.50
2022-12-18T19:24:44.602Z,1.50
2022-12-18T19:27:13.324Z,1.60
2022-12-18T19:29:42.279Z,1.60
2022-12-18T19:32:13.804Z,1.60
2022-12-18T19:34:42.978Z,1.60
2022-12-18T19:37:13.790Z,1.60
2022-12-18T19:39:43.563Z,1.60
2022-12-18T19:42:12.001Z,1.60
2022-12-18T19:44:42.054Z,1.60
2022-12-18T19:47:10.729Z,1.60
2022-12-18T19:49:39.624Z,1.50
2022-12-18T19:52:08.489Z,1.50
2022-12-18T19:54:37.969Z,1.50
2022-12-18T19:57:11.645Z,1.50
2022-12-18T19:59:40.284Z,1.50
2022-12-18T20:02:14.462Z,1.40
2022-12-18T20:04:43.240Z,1.40
2022-12-18T20:07:11.951Z,1.40
2022-12-18T20:09:40.540Z,1.40
2022-12-18T20:12:11.507Z,1.40
2022-12-18T20:14:40.201Z,1.40
2022-12-18T20:17:09.285Z,1.30
2022-12-18T20:19:38.349Z,1.30
2022-12-18T20:22:07.506Z,1.30
2022-12-18T20:24:35.887Z,1.30
2022-12-18T20:27:04.568Z,1.30
2022-12-18T20:29:34.380Z,1.30
2022-12-18T20:32:03.187Z,1.30
2022-12-18T20:34:31.761Z,1.30
2022-12-18T20:37:00.414Z,1.20
2022-12-18T20:39:29.024Z,1.20
2022-12-18T20:41:57.964Z,1.20
2022-12-18T20:44:27.851Z,1.20
2022-12-18T20:47:00.385Z,1.20
2022-12-18T20:49:35.759Z,1.20
2022-12-18T20:52:06.638Z,1.20
2022-12-18T20:54:34.882Z,1.20
2022-12-18T20:57:03.344Z,1.20
2022-12-18T21:02:02.008Z,1.20
2022-12-18T21:04:31.045Z,1.20
2022-12-18T21:07:02.635Z,1.20
2022-12-18T21:09:38.451Z,1.20
2022-12-18T21:12:26.233Z,1.20
2022-12-18T21:14:54.891Z,1.20
2022-12-18T21:17:24.617Z,1.20
2022-12-18T21:19:55.382Z,1.20
2022-12-18T21:22:24.421Z,1.20
2022-12-18T21:24:52.823Z,1.20
2022-12-18T21:27:21.642Z,1.20
2022-12-18T21:29:50.266Z,1.20
2022-12-18T21:32:21.109Z,1.20
2022-12-18T21:34:53.606Z,1.30
2022-12-18T21:37:21.986Z,1.30
2022-12-18T21:39:50.417Z,1.30
2022-12-18T21:42:36.192Z,1.30
2022-12-18T21:45:05.071Z,1.30
2022-12-18T21:47:33.440Z,1.30
2022-12-18T21:50:03.307Z,1.30
2022-12-18T21:52:32.775Z,1.30
2022-12-18T21:55:08.466Z,1.40
2022-12-18T21:57:38.850Z,1.40
2022-12-18T22:00:09.330Z,1.40
2022-12-18T22:02:39.812Z,1.40
2022-12-18T22:05:10.504Z,1.40
2022-12-18T22:07:39.898Z,1.40
2022-12-18T22:10:09.371Z,1.40
2022-12-18T22:12:43.450Z,1.40
2022-12-18T22:15:21.218Z,1.50
2022-12-18T22:17:51.362Z,1.40
2022-12-18T22:20:30.265Z,1.50
2022-12-18T22:22:59.506Z,1.50
2022-12-18T22:25:42.795Z,1.50
2022-12-18T22:28:28.503Z,1.50
2022-12-18T22:30:59.553Z,1.50
2022-12-18T22:33:28.890Z,1.50
2022-12-18T22:35:58.755Z,1.50
2022-12-18T22:38:27.108Z,1.50
2022-12-18T22:40:56.376Z,1.60
2022-12-18T22:43:24.925Z,1.60
2022-12-18T22:45:53.339Z,1.60
2022-12-18T22:48:21.989Z,1.60
2022-12-18T22:50:50.107Z,1.60
2022-12-18T22:53:20.640Z,1.60
2022-12-18T22:55:48.685Z,1.60
2022-12-18T22:58:16.809Z,1.60
2022-12-18T23:00:44.848Z,1.60
2022-12-18T23:03:12.978Z,1.60
2022-12-18T23:05:41.172Z,1.60
2022-12-18T23:08:09.293Z,1.60
2022-12-18T23:10:39.895Z,1.60
2022-12-18T23:13:08.030Z,1.60
2022-12-18T23:15:36.504Z,1.70
2022-12-18T23:18:04.878Z,1.70
2022-12-18T23:20:33.151Z,1.70
2022-12-18T23:23:02.292Z,1.70
2022-12-18T23:25:30.388Z,1.70
2022-12-18T23:27:59.794Z,1.70
2022-12-18T23:30:28.095Z,1.70
2022-12-18T23:32:56.264Z,1.70
2022-12-18T23:35:24.736Z,1.70
2022-12-18T23:38:00.556Z,1.70
2022-12-18T23:40:29.992Z,1.70
2022-12-18T23:43:00.239Z,1.70
2022-12-18T23:45:28.446Z,1.70
2022-12-18T23:47:56.544Z,1.70
2022-12-18T23:50:29.629Z,1.80
2022-12-18T23:53:03.300Z,1.80
2022-12-18T23:55:33.750Z,1.80
2022-12-18T23:58:03.235Z,1.70
